Time;durP1;ratioP1;P1;durP2;ratioP2;P2;SDS_P1;SDS_P2;PMS_P1;PMS_P2;Temp;Humidity;BMP_temperature;BMP_pressure;BME280_temperature;BME280_humidity;BME280_pressure;Samples;Min_cycle;Max_cycle;Signal;HPM_P1;HPM_P2
2021/12/28 00:00:09;;;;;;;;;;;0.90;99.90;;;;;;4953682;28;19926;-81
2021/12/28 00:02:38;;;;;;;;;;;0.90;99.90;;;;;;4965609;28;19922;-78
2021/12/28 00:05:04;;;;;;;;;;;0.90;99.90;;;;;;4962064;28;19931;-79
2021/12/28 00:07:29;;;;;;;;;;;0.90;99.90;;;;;;4970543;28;20002;-79
2021/12/28 00:09:55;;;;;;;;;;;0.90;99.90;;;;;;4953991;28;19921;-79
2021/12/28 00:12:21;;;;;;;;;;;0.90;99.90;;;;;;4978842;28;19918;-80
2021/12/28 00:15:06;;;;;;;;;;;0.90;99.90;;;;;;4954704;29;19915;-79
2021/12/28 00:20:16;;;;;;;;;;;0.90;99.90;;;;;;4968036;28;19922;-79
2021/12/28 00:22:42;;;;;;;;;;;0.90;99.90;;;;;;4937994;29;20365;-79
2021/12/28 00:25:08;;;;;;;;;;;1.00;99.90;;;;;;4959590;28;19922;-79
2021/12/28 00:27:33;;;;;;;;;;;0.90;99.90;;;;;;4949052;28;19914;-80
2021/12/28 00:30:01;;;;;;;;;;;1.00;99.90;;;;;;4966122;28;19914;-80
2021/12/28 00:32:26;;;;;;;;;;;0.90;99.90;;;;;;4978164;28;19960;-79
2021/12/28 00:34:52;;;;;;;;;;;0.90;99.90;;;;;;4970045;28;19945;-79
2021/12/28 00:37:18;;;;;;;;;;;0.90;99.90;;;;;;4972157;28;19949;-79
2021/12/28 00:39:44;;;;;;;;;;;0.90;99.90;;;;;;4982544;28;19925;-79
2021/12/28 00:42:09;;;;;;;;;;;0.90;99.90;;;;;;4974951;28;19919;-78
2021/12/28 00:44:35;;;;;;;;;;;0.90;99.90;;;;;;4963050;28;19922;-78
2021/12/28 00:47:01;;;;;;;;;;;0.90;99.90;;;;;;4965483;28;19918;-79
2021/12/28 00:49:26;;;;;;;;;;;0.90;99.90;;;;;;4955282;28;19914;-79
2021/12/28 00:51:52;;;;;;;;;;;0.90;99.90;;;;;;4953193;29;20449;-78
2021/12/28 00:54:18;;;;;;;;;;;0.90;99.90;;;;;;4969811;28;19926;-78
2021/12/28 00:56:43;;;;;;;;;;;0.90;99.90;;;;;;4964840;28;20020;-77
2021/12/28 00:59:09;;;;;;;;;;;0.90;99.90;;;;;;4971474;28;19918;-78
2021/12/28 01:01:35;;;;;;;;;;;0.90;99.90;;;;;;4969255;28;20456;-78
2021/12/28 01:04:00;;;;;;;;;;;1.00;99.90;;;;;;4958765;28;20305;-79
2021/12/28 01:06:26;;;;;;;;;;;1.00;99.90;;;;;;4968285;28;19921;-78
2021/12/28 01:08:51;;;;;;;;;;;1.00;99.90;;;;;;4968388;28;19930;-78
2021/12/28 01:11:17;;;;;;;;;;;1.00;99.90;;;;;;4969098;28;19922;-79
2021/12/28 01:13:43;;;;;;;;;;;1.00;99.90;;;;;;4968919;28;20422;-78
2021/12/28 01:16:08;;;;;;;;;;;1.00;99.90;;;;;;4952592;28;19917;-80
2021/12/28 01:18:34;;;;;;;;;;;1.00;99.90;;;;;;4972824;28;19919;-78
2021/12/28 01:21:00;;;;;;;;;;;1.00;99.90;;;;;;4968799;28;20359;-78
2021/12/28 01:23:26;;;;;;;;;;;1.00;99.90;;;;;;4968476;28;19926;-78
2021/12/28 01:25:51;;;;;;;;;;;1.00;99.90;;;;;;4967706;28;20393;-78
2021/12/28 01:28:17;;;;;;;;;;;1.00;99.90;;;;;;4969278;28;19914;-78
2021/12/28 01:30:43;;;;;;;;;;;1.00;99.90;;;;;;4960905;28;19914;-79
2021/12/28 01:33:09;;;;;;;;;;;1.00;99.90;;;;;;4988152;28;19918;-78
2021/12/28 01:35:35;;;;;;;;;;;1.00;99.90;;;;;;4971065;28;19918;-78
2021/12/28 01:38:00;;;;;;;;;;;1.00;99.90;;;;;;4956545;28;19914;-78
2021/12/28 01:40:28;;;;;;;;;;;1.00;99.90;;;;;;4967876;28;19918;-79
2021/12/28 01:43:06;;;;;;;;;;;1.00;99.90;;;;;;4968732;28;19914;-78
2021/12/28 01:45:35;;;;;;;;;;;1.00;99.90;;;;;;4965372;28;19922;-78
2021/12/28 01:48:00;;;;;;;;;;;1.00;99.90;;;;;;4968551;28;19914;-78
2021/12/28 01:50:26;;;;;;;;;;;1.00;99.90;;;;;;4951936;29;20357;-77
2021/12/28 01:52:52;;;;;;;;;;;1.00;99.90;;;;;;4968172;28;19919;-77
2021/12/28 01:55:18;;;;;;;;;;;1.00;99.90;;;;;;4968109;28;19929;-78
2021/12/28 01:57:44;;;;;;;;;;;1.00;99.90;;;;;;4967267;28;19970;-78
2021/12/28 02:00:10;;;;;;;;;;;1.00;99.90;;;;;;4950312;28;20400;-78
2021/12/28 02:02:38;;;;;;;;;;;1.00;99.90;;;;;;4942752;29;20013;-78
2021/12/28 02:05:04;;;;;;;;;;;1.00;99.90;;;;;;4935614;29;20353;-78
2021/12/28 02:07:30;;;;;;;;;;;1.00;99.90;;;;;;4950455;28;19922;-78
2021/12/28 02:09:55;;;;;;;;;;;1.00;99.90;;;;;;4967165;28;20262;-78
2021/12/28 02:12:21;;;;;;;;;;;1.00;99.90;;;;;;4954737;28;20528;-77
2021/12/28 02:14:47;;;;;;;;;;;1.10;99.90;;;;;;4970296;28;19918;-78
2021/12/28 02:17:14;;;;;;;;;;;1.10;99.90;;;;;;4950579;28;19918;-78
2021/12/28 02:19:40;;;;;;;;;;;1.10;99.90;;;;;;4932083;28;19930;-78
2021/12/28 02:22:06;;;;;;;;;;;1.10;99.90;;;;;;4948608;28;19918;-78
2021/12/28 02:24:31;;;;;;;;;;;1.10;99.90;;;;;;4932876;29;19915;-78
2021/12/28 02:26:57;;;;;;;;;;;1.10;99.90;;;;;;4948019;28;19923;-79
2021/12/28 02:29:23;;;;;;;;;;;1.10;99.90;;;;;;4931123;29;20009;-78
2021/12/28 02:31:50;;;;;;;;;;;1.10;99.90;;;;;;4948522;28;19919;-78
2021/12/28 02:34:16;;;;;;;;;;;1.10;99.90;;;;;;4977298;28;19961;-78
2021/12/28 02:36:41;;;;;;;;;;;1.10;99.90;;;;;;4970207;28;20004;-79
2021/12/28 02:39:07;;;;;;;;;;;1.10;99.90;;;;;;4970417;28;19967;-79
2021/12/28 02:41:33;;;;;;;;;;;1.10;99.90;;;;;;4987295;28;20399;-78
2021/12/28 02:44:00;;;;;;;;;;;1.00;99.90;;;;;;4961528;28;20345;-79
2021/12/28 02:46:25;;;;;;;;;;;1.00;99.90;;;;;;4972350;28;19922;-79
2021/12/28 02:48:51;;;;;;;;;;;1.00;99.90;;;;;;4972021;28;20950;-79
2021/12/28 02:51:17;;;;;;;;;;;0.90;99.90;;;;;;4960845;28;20564;-78
2021/12/28 02:53:43;;;;;;;;;;;1.00;99.90;;;;;;4967784;28;20443;-79
2021/12/28 02:56:09;;;;;;;;;;;1.00;99.90;;;;;;4951092;28;19972;-78
2021/12/28 02:58:37;;;;;;;;;;;1.00;99.90;;;;;;4963012;28;19934;-78
2021/12/28 03:01:14;;;;;;;;;;;1.00;99.90;;;;;;4956238;28;20349;-78
2021/12/28 03:03:40;;;;;;;;;;;1.00;99.90;;;;;;4948361;28;19918;-78
2021/12/28 03:06:07;;;;;;;;;;;1.00;99.90;;;;;;4947964;29;20332;-79
2021/12/28 03:08:34;;;;;;;;;;;1.00;99.90;;;;;;4964405;28;19945;-79
2021/12/28 03:11:01;;;;;;;;;;;1.10;99.90;;;;;;4951351;28;20440;-79
2021/12/28 03:13:30;;;;;;;;;;;1.10;99.90;;;;;;4945171;29;19966;-79
2021/12/28 03:15:55;;;;;;;;;;;1.10;99.90;;;;;;4932679;28;20120;-79
2021/12/28 03:18:21;;;;;;;;;;;1.10;99.90;;;;;;4948972;28;19915;-78
2021/12/28 03:20:47;;;;;;;;;;;1.10;99.90;;;;;;4940604;28;19926;-80
2021/12/28 03:23:17;;;;;;;;;;;1.10;99.90;;;;;;4935556;28;19919;-79
2021/12/28 03:25:43;;;;;;;;;;;1.10;99.90;;;;;;4962131;28;19930;-79
2021/12/28 03:28:14;;;;;;;;;;;1.10;99.90;;;;;;4963324;28;20304;-79
2021/12/28 03:30:40;;;;;;;;;;;1.10;99.90;;;;;;4959142;28;19914;-79
2021/12/28 03:33:06;;;;;;;;;;;1.10;99.90;;;;;;4990037;28;20339;-79
2021/12/28 03:35:31;;;;;;;;;;;1.10;99.90;;;;;;4989389;28;19960;-79
2021/12/28 03:37:57;;;;;;;;;;;1.10;99.90;;;;;;4973659;28;20288;-79
2021/12/28 03:40:22;;;;;;;;;;;1.10;99.90;;;;;;4973031;28;19918;-79
2021/12/28 03:42:48;;;;;;;;;;;1.20;99.90;;;;;;4956639;28;19922;-78
2021/12/28 03:45:14;;;;;;;;;;;1.20;99.90;;;;;;4970313;28;19915;-79
2021/12/28 03:47:39;;;;;;;;;;;1.20;99.90;;;;;;4966077;28;19983;-79
2021/12/28 03:50:06;;;;;;;;;;;1.20;99.90;;;;;;4977591;28;19922;-80
2021/12/28 03:52:32;;;;;;;;;;;1.20;99.90;;;;;;4970911;28;19945;-79
2021/12/28 03:54:58;;;;;;;;;;;1.10;99.90;;;;;;4979798;28;20589;-79
2021/12/28 03:57:23;;;;;;;;;;;1.10;99.90;;;;;;4969585;28;19922;-79
2021/12/28 03:59:49;;;;;;;;;;;1.20;99.90;;;;;;4969549;28;19942;-79
2021/12/28 04:02:15;;;;;;;;;;;1.20;99.90;;;;;;4970282;28;19919;-79
2021/12/28 04:04:40;;;;;;;;;;;1.20;99.90;;;;;;4938016;29;20025;-79
2021/12/28 04:07:09;;;;;;;;;;;1.20;99.90;;;;;;4953339;28;19915;-79
2021/12/28 04:12:16;;;;;;;;;;;1.20;99.90;;;;;;4956040;28;19985;-79
2021/12/28 04:14:41;;;;;;;;;;;1.20;99.90;;;;;;4970016;28;19921;-79
2021/12/28 04:17:07;;;;;;;;;;;1.20;99.90;;;;;;4950155;28;19926;-79
2021/12/28 04:19:32;;;;;;;;;;;1.20;99.90;;;;;;4949794;29;19915;-80
2021/12/28 04:21:59;;;;;;;;;;;1.20;99.90;;;;;;4950678;28;19911;-79
2021/12/28 04:24:24;;;;;;;;;;;1.20;99.90;;;;;;4977150;28;20039;-78
2021/12/28 04:26:50;;;;;;;;;;;1.20;99.90;;;;;;4953429;28;19957;-78
2021/12/28 04:29:15;;;;;;;;;;;1.20;99.90;;;;;;4953995;29;19918;-78
2021/12/28 04:31:41;;;;;;;;;;;1.20;99.90;;;;;;4970381;28;19938;-78
2021/12/28 04:34:07;;;;;;;;;;;1.10;99.90;;;;;;4960605;28;19919;-79
2021/12/28 04:36:32;;;;;;;;;;;1.10;99.90;;;;;;4959825;28;20014;-78
2021/12/28 04:38:58;;;;;;;;;;;1.10;99.90;;;;;;4987418;28;19918;-79
2021/12/28 04:41:24;;;;;;;;;;;1.10;99.90;;;;;;4972644;28;20389;-79
2021/12/28 04:43:49;;;;;;;;;;;1.10;99.90;;;;;;4972561;28;19918;-79
2021/12/28 04:46:15;;;;;;;;;;;1.20;99.90;;;;;;4972052;28;19925;-79
2021/12/28 04:48:41;;;;;;;;;;;1.20;99.90;;;;;;4959756;28;19922;-80
2021/12/28 04:51:06;;;;;;;;;;;1.10;99.90;;;;;;4949814;29;19922;-78
2021/12/28 04:53:32;;;;;;;;;;;1.10;99.90;;;;;;4950013;29;20316;-79
2021/12/28 04:55:58;;;;;;;;;;;1.10;99.90;;;;;;4964753;28;19994;-79
2021/12/28 04:58:24;;;;;;;;;;;1.10;99.90;;;;;;4976962;28;19914;-79
2021/12/28 05:00:51;;;;;;;;;;;1.10;99.90;;;;;;4969046;28;19969;-80
2021/12/28 05:03:17;;;;;;;;;;;1.10;99.90;;;;;;4936954;29;20447;-80
2021/12/28 05:05:46;;;;;;;;;;;1.10;99.90;;;;;;4952113;28;19953;-80
2021/12/28 05:08:12;;;;;;;;;;;1.10;99.90;;;;;;4970805;28;19918;-80
2021/12/28 05:10:38;;;;;;;;;;;1.10;99.90;;;;;;4964019;28;19950;-79
2021/12/28 05:13:04;;;;;;;;;;;1.20;99.90;;;;;;4974614;28;20292;-79
2021/12/28 05:15:29;;;;;;;;;;;1.10;99.90;;;;;;4965390;28;19923;-79
2021/12/28 05:17:55;;;;;;;;;;;1.10;99.90;;;;;;4953995;28;19938;-80
2021/12/28 05:20:20;;;;;;;;;;;1.10;99.90;;;;;;4967962;28;19918;-79
2021/12/28 05:22:46;;;;;;;;;;;1.10;99.90;;;;;;4968766;28;19921;-79
2021/12/28 05:25:12;;;;;;;;;;;1.10;99.90;;;;;;4968478;28;19914;-79
2021/12/28 05:27:37;;;;;;;;;;;1.10;99.90;;;;;;4952063;28;19915;-78
2021/12/28 05:30:04;;;;;;;;;;;1.10;99.90;;;;;;4967258;28;19970;-79
2021/12/28 05:32:30;;;;;;;;;;;1.10;99.90;;;;;;4952568;29;20060;-80
2021/12/28 05:34:56;;;;;;;;;;;1.00;99.90;;;;;;4968579;28;19951;-79
2021/12/28 05:37:21;;;;;;;;;;;1.00;99.90;;;;;;4968117;28;19918;-79
2021/12/28 05:39:47;;;;;;;;;;;1.10;99.90;;;;;;4953187;28;20463;-78
2021/12/28 05:42:12;;;;;;;;;;;1.10;99.90;;;;;;4934666;28;20280;-79
2021/12/28 05:44:38;;;;;;;;;;;1.00;99.90;;;;;;4933224;28;19922;-80
2021/12/28 05:47:04;;;;;;;;;;;1.10;99.90;;;;;;4936002;29;20013;-80
2021/12/28 05:49:29;;;;;;;;;;;1.00;99.90;;;;;;4951028;28;20021;-80
2021/12/28 05:51:55;;;;;;;;;;;1.00;99.90;;;;;;4952358;28;19929;-79
2021/12/28 05:54:21;;;;;;;;;;;1.00;99.90;;;;;;4945282;29;19919;-80
2021/12/28 05:56:46;;;;;;;;;;;1.00;99.90;;;;;;4948461;29;19930;-80
2021/12/28 05:59:12;;;;;;;;;;;1.10;99.90;;;;;;4935570;28;20373;-80
2021/12/28 06:01:37;;;;;;;;;;;1.00;99.90;;;;;;4957996;28;19914;-80
2021/12/28 06:04:03;;;;;;;;;;;1.00;99.90;;;;;;4944552;28;20319;-79
2021/12/28 06:06:29;;;;;;;;;;;1.10;99.90;;;;;;4971250;28;19925;-80
2021/12/28 06:08:55;;;;;;;;;;;1.00;99.90;;;;;;4978972;28;20463;-80
2021/12/28 06:11:21;;;;;;;;;;;1.10;99.90;;;;;;4964470;28;19972;-80
2021/12/28 06:13:47;;;;;;;;;;;1.00;99.90;;;;;;4978801;28;19923;-80
2021/12/28 06:16:12;;;;;;;;;;;1.00;99.90;;;;;;4967463;28;20537;-80
2021/12/28 06:18:38;;;;;;;;;;;1.10;99.90;;;;;;4951252;28;19918;-80
2021/12/28 06:21:04;;;;;;;;;;;1.10;99.90;;;;;;4948421;29;20313;-81
2021/12/28 06:23:29;;;;;;;;;;;1.10;99.90;;;;;;4968038;28;20009;-80
2021/12/28 06:25:55;;;;;;;;;;;1.10;99.90;;;;;;4951134;29;19962;-80
2021/12/28 06:28:21;;;;;;;;;;;1.10;99.90;;;;;;4966730;28;19918;-79
2021/12/28 06:30:46;;;;;;;;;;;1.10;99.90;;;;;;4967802;28;19961;-80
2021/12/28 06:33:12;;;;;;;;;;;1.10;99.90;;;;;;4951640;29;20382;-80
2021/12/28 06:35:38;;;;;;;;;;;1.10;99.90;;;;;;4951369;29;19927;-79
2021/12/28 06:38:03;;;;;;;;;;;1.10;99.90;;;;;;4951847;28;20030;-78
2021/12/28 06:40:29;;;;;;;;;;;1.10;99.90;;;;;;4966212;28;19918;-79
2021/12/28 06:42:55;;;;;;;;;;;1.10;99.90;;;;;;4979137;28;19969;-80
2021/12/28 06:45:21;;;;;;;;;;;1.10;99.90;;;;;;4952623;28;19915;-80
2021/12/28 06:47:46;;;;;;;;;;;1.00;99.90;;;;;;4969665;28;19919;-79
2021/12/28 06:50:12;;;;;;;;;;;1.00;99.90;;;;;;4975744;28;19969;-79
2021/12/28 06:52:38;;;;;;;;;;;1.00;99.90;;;;;;4984130;28;19918;-80
2021/12/28 06:55:05;;;;;;;;;;;1.00;99.90;;;;;;4983935;28;20377;-80
2021/12/28 06:57:30;;;;;;;;;;;1.00;99.90;;;;;;4983219;28;20381;-80
2021/12/28 06:59:59;;;;;;;;;;;1.10;99.90;;;;;;4938727;28;19942;-80
2021/12/28 07:02:25;;;;;;;;;;;1.10;99.90;;;;;;4956994;28;20432;-79
2021/12/28 07:04:52;;;;;;;;;;;1.10;99.90;;;;;;4962626;28;20009;-79
2021/12/28 07:07:18;;;;;;;;;;;1.20;99.90;;;;;;4941760;28;20030;-79
2021/12/28 07:09:44;;;;;;;;;;;1.20;99.90;;;;;;4935398;29;20009;-79
2021/12/28 07:12:10;;;;;;;;;;;1.20;99.90;;;;;;4936497;29;19958;-79
2021/12/28 07:14:36;;;;;;;;;;;1.20;99.90;;;;;;4970395;28;19922;-79
2021/12/28 07:17:02;;;;;;;;;;;1.20;99.90;;;;;;4935417;29;19923;-80
2021/12/28 07:19:28;;;;;;;;;;;1.20;99.90;;;;;;4970432;28;19918;-80
2021/12/28 07:21:53;;;;;;;;;;;1.20;99.90;;;;;;4970983;28;19914;-80
2021/12/28 07:24:19;;;;;;;;;;;1.20;99.90;;;;;;4968758;28;20009;-80
2021/12/28 07:26:45;;;;;;;;;;;1.20;99.90;;;;;;4955274;28;20333;-79
2021/12/28 07:29:11;;;;;;;;;;;1.20;99.90;;;;;;4977318;28;19914;-79
2021/12/28 07:31:37;;;;;;;;;;;1.20;99.90;;;;;;4953093;28;19957;-79
2021/12/28 07:34:02;;;;;;;;;;;1.30;99.90;;;;;;4946123;28;19961;-79
2021/12/28 07:36:28;;;;;;;;;;;1.30;99.90;;;;;;4965274;28;19964;-79
2021/12/28 07:38:54;;;;;;;;;;;1.30;99.90;;;;;;4983595;28;19961;-80
2021/12/28 07:41:20;;;;;;;;;;;1.30;99.90;;;;;;4962581;28;20407;-79
2021/12/28 07:43:46;;;;;;;;;;;1.30;99.90;;;;;;4962622;28;19914;-79
2021/12/28 07:46:12;;;;;;;;;;;1.30;99.90;;;;;;4978804;28;19922;-80
2021/12/28 07:48:37;;;;;;;;;;;1.30;99.90;;;;;;4960294;28;19923;-80
2021/12/28 07:51:03;;;;;;;;;;;1.40;99.90;;;;;;4946435;28;19919;-80
2021/12/28 07:53:29;;;;;;;;;;;1.40;99.90;;;;;;4962213;28;19922;-79
2021/12/28 07:55:57;;;;;;;;;;;1.40;99.90;;;;;;4942640;28;20609;-79
2021/12/28 07:58:23;;;;;;;;;;;1.40;99.90;;;;;;4977347;28;19921;-80
2021/12/28 08:00:48;;;;;;;;;;;1.40;99.90;;;;;;4977835;28;20009;-80
2021/12/28 08:03:14;;;;;;;;;;;1.40;99.90;;;;;;4972953;28;19969;-80
2021/12/28 08:05:40;;;;;;;;;;;1.50;99.90;;;;;;4979014;28;19926;-80
2021/12/28 08:08:05;;;;;;;;;;;1.40;99.90;;;;;;4966026;28;20400;-80
2021/12/28 08:10:31;;;;;;;;;;;1.50;99.90;;;;;;4982705;28;20005;-80
2021/12/28 08:12:56;;;;;;;;;;;1.50;99.90;;;;;;4971469;28;19918;-80
2021/12/28 08:15:23;;;;;;;;;;;1.50;99.90;;;;;;4943744;28;20013;-80
2021/12/28 08:17:49;;;;;;;;;;;1.50;99.90;;;;;;4948961;28;19915;-79
2021/12/28 08:20:15;;;;;;;;;;;1.50;99.90;;;;;;4967573;28;19922;-80
2021/12/28 08:22:41;;;;;;;;;;;1.50;99.90;;;;;;4983443;28;19919;-80
2021/12/28 08:25:08;;;;;;;;;;;1.40;99.90;;;;;;4953775;28;20430;-80
2021/12/28 08:27:34;;;;;;;;;;;1.40;99.90;;;;;;4955868;28;19918;-80
2021/12/28 08:29:59;;;;;;;;;;;1.40;99.90;;;;;;4961205;28;20291;-79
2021/12/28 08:32:25;;;;;;;;;;;1.40;99.90;;;;;;4972679;28;19977;-79
2021/12/28 08:34:51;;;;;;;;;;;1.40;99.90;;;;;;4950664;28;20297;-80
2021/12/28 08:37:16;;;;;;;;;;;1.40;99.90;;;;;;4962746;28;19923;-80
2021/12/28 08:39:42;;;;;;;;;;;1.40;99.90;;;;;;4967047;28;19965;-79
2021/12/28 08:42:08;;;;;;;;;;;1.40;99.90;;;;;;4970906;28;20498;-80
2021/12/28 08:44:34;;;;;;;;;;;1.40;99.90;;;;;;4974406;28;19918;-79
2021/12/28 08:47:00;;;;;;;;;;;1.40;99.90;;;;;;4969994;28;19921;-79
2021/12/28 08:49:26;;;;;;;;;;;1.40;99.90;;;;;;4969965;28;19918;-79
2021/12/28 08:51:52;;;;;;;;;;;1.40;99.90;;;;;;4954654;28;19925;-79
2021/12/28 08:54:17;;;;;;;;;;;1.40;99.90;;;;;;4977481;28;19914;-79
2021/12/28 08:56:43;;;;;;;;;;;1.50;99.90;;;;;;4952188;28;19970;-79
2021/12/28 08:59:09;;;;;;;;;;;1.40;99.90;;;;;;4965730;28;19918;-79
2021/12/28 09:01:34;;;;;;;;;;;1.50;99.90;;;;;;4976053;28;19966;-80
2021/12/28 09:04:00;;;;;;;;;;;1.50;99.90;;;;;;4977184;28;19922;-80
2021/12/28 09:06:25;;;;;;;;;;;1.50;99.90;;;;;;4984759;28;19942;-81
2021/12/28 09:08:51;;;;;;;;;;;1.50;99.90;;;;;;4971555;28;19922;-80
2021/12/28 09:11:17;;;;;;;;;;;1.60;99.90;;;;;;4986238;28;19918;-79
2021/12/28 09:13:42;;;;;;;;;;;1.60;99.90;;;;;;4970561;28;19969;-80
2021/12/28 09:16:08;;;;;;;;;;;1.60;99.90;;;;;;4973793;28;19926;-80
2021/12/28 09:18:33;;;;;;;;;;;1.70;99.90;;;;;;4962865;28;20537;-81
2021/12/28 09:20:59;;;;;;;;;;;1.70;99.90;;;;;;4952545;28;19971;-80
2021/12/28 09:23:25;;;;;;;;;;;1.70;99.90;;;;;;4943252;28;19923;-80
2021/12/28 09:25:50;;;;;;;;;;;1.70;99.90;;;;;;4950072;29;20017;-80
2021/12/28 09:28:16;;;;;;;;;;;1.70;99.90;;;;;;4951432;28;19926;-80
2021/12/28 09:30:43;;;;;;;;;;;1.70;99.90;;;;;;4947733;28;19918;-81
2021/12/28 09:33:10;;;;;;;;;;;1.70;99.90;;;;;;4947705;28;19915;-82
2021/12/28 09:35:35;;;;;;;;;;;1.70;99.90;;;;;;4968666;28;19985;-83
2021/12/28 09:38:02;;;;;;;;;;;1.80;99.90;;;;;;4956924;28;20226;-83
2021/12/28 09:40:28;;;;;;;;;;;1.90;99.90;;;;;;4950682;28;20016;-84
2021/12/28 09:42:54;;;;;;;;;;;1.90;99.90;;;;;;4967991;28;19919;-84
2021/12/28 09:45:20;;;;;;;;;;;2.00;99.90;;;;;;4964977;28;19919;-83
2021/12/28 09:47:46;;;;;;;;;;;2.00;99.90;;;;;;4951280;28;19926;-83
2021/12/28 09:50:14;;;;;;;;;;;2.10;99.90;;;;;;4969112;28;19974;-82
2021/12/28 09:52:39;;;;;;;;;;;2.20;99.90;;;;;;4949065;28;19945;-83
2021/12/28 09:55:06;;;;;;;;;;;2.20;99.90;;;;;;4927380;29;20309;-83
2021/12/28 09:57:32;;;;;;;;;;;2.20;99.90;;;;;;4949255;28;19973;-84
2021/12/28 09:59:57;;;;;;;;;;;2.20;99.90;;;;;;4958661;28;19918;-84
2021/12/28 10:02:23;;;;;;;;;;;2.20;99.90;;;;;;4961319;28;19964;-83
2021/12/28 10:04:56;;;;;;;;;;;2.20;99.90;;;;;;4955076;28;19918;-82
2021/12/28 10:07:23;;;;;;;;;;;2.20;99.90;;;;;;4965352;28;20013;-83
2021/12/28 10:09:49;;;;;;;;;;;2.30;99.90;;;;;;4978403;28;19926;-82
2021/12/28 10:12:35;;;;;;;;;;;2.20;99.90;;;;;;4951079;28;20700;-82
2021/12/28 10:15:04;;;;;;;;;;;2.20;99.90;;;;;;4951178;29;19921;-84
2021/12/28 10:17:31;;;;;;;;;;;2.20;99.90;;;;;;4964985;28;20282;-82
2021/12/28 10:19:57;;;;;;;;;;;2.20;99.90;;;;;;4949516;28;20356;-81
2021/12/28 10:22:23;;;;;;;;;;;2.10;99.90;;;;;;4966532;28;19918;-82
2021/12/28 10:24:49;;;;;;;;;;;2.20;99.90;;;;;;4959773;28;19970;-82
2021/12/28 10:27:16;;;;;;;;;;;2.20;99.90;;;;;;4929942;28;19926;-81
2021/12/28 10:29:42;;;;;;;;;;;2.20;99.90;;;;;;4930782;28;20013;-82
2021/12/28 10:32:19;;;;;;;;;;;2.20;99.90;;;;;;4934084;29;19962;-80
2021/12/28 10:34:49;;;;;;;;;;;2.20;99.90;;;;;;4941350;28;19941;-82
2021/12/28 10:37:35;;;;;;;;;;;2.20;99.90;;;;;;4937260;29;19961;-79
2021/12/28 10:40:01;;;;;;;;;;;2.20;99.90;;;;;;4944173;28;19915;-81
2021/12/28 10:42:47;;;;;;;;;;;2.20;99.90;;;;;;4966682;28;19925;-81
2021/12/28 10:45:15;;;;;;;;;;;2.20;99.90;;;;;;4942849;29;20424;-82
2021/12/28 10:47:41;;;;;;;;;;;2.30;99.90;;;;;;4942807;29;19923;-81
2021/12/28 10:50:29;;;;;;;;;;;2.30;99.90;;;;;;4946088;28;20408;-81
2021/12/28 10:53:18;;;;;;;;;;;2.30;99.90;;;;;;4955151;28;20031;-82
2021/12/28 10:55:44;;;;;;;;;;;2.30;99.90;;;;;;4951096;29;19923;-81
2021/12/28 10:58:18;;;;;;;;;;;2.40;99.90;;;;;;4950201;28;19919;-82
2021/12/28 11:00:44;;;;;;;;;;;2.40;99.90;;;;;;4968040;28;19915;-81
2021/12/28 11:03:13;;;;;;;;;;;2.40;99.90;;;;;;4977522;28;19915;-82
2021/12/28 11:05:38;;;;;;;;;;;2.40;99.90;;;;;;4974191;28;19918;-81
2021/12/28 11:08:07;;;;;;;;;;;2.40;99.90;;;;;;4970443;28;19969;-79
2021/12/28 11:10:34;;;;;;;;;;;2.40;99.90;;;;;;4974943;28;19914;-81
2021/12/28 11:12:59;;;;;;;;;;;2.40;99.90;;;;;;4947869;29;19927;-80
2021/12/28 11:15:25;;;;;;;;;;;2.40;99.90;;;;;;4948560;28;19922;-81
2021/12/28 11:17:51;;;;;;;;;;;2.40;99.90;;;;;;4968950;28;19915;-82
2021/12/28 11:20:17;;;;;;;;;;;2.40;99.90;;;;;;4944150;29;19915;-81
2021/12/28 11:23:01;;;;;;;;;;;2.50;99.90;;;;;;4956158;28;19922;-81
2021/12/28 11:25:27;;;;;;;;;;;2.50;99.90;;;;;;4974180;28;20553;-81
2021/12/28 11:28:12;;;;;;;;;;;2.50;99.90;;;;;;4978510;28;19925;-82
2021/12/28 11:30:38;;;;;;;;;;;2.50;99.90;;;;;;4967157;28;20402;-83
2021/12/28 11:33:08;;;;;;;;;;;2.50;99.90;;;;;;4970190;28;19953;-83
2021/12/28 11:35:34;;;;;;;;;;;2.50;99.90;;;;;;4969167;28;20288;-83
2021/12/28 11:38:00;;;;;;;;;;;2.50;99.90;;;;;;4953266;28;19961;-82
2021/12/28 11:40:26;;;;;;;;;;;2.50;99.90;;;;;;4959004;28;19918;-82
2021/12/28 11:42:52;;;;;;;;;;;2.60;99.90;;;;;;4965854;28;19919;-81
2021/12/28 11:45:19;;;;;;;;;;;2.60;99.90;;;;;;4955471;28;19926;-81
2021/12/28 11:47:45;;;;;;;;;;;2.70;99.90;;;;;;4949124;28;19922;-80
2021/12/28 11:50:11;;;;;;;;;;;2.70;99.90;;;;;;4966336;28;20477;-81
2021/12/28 11:52:38;;;;;;;;;;;2.70;99.90;;;;;;4957682;28;19957;-83
2021/12/28 11:55:05;;;;;;;;;;;2.70;99.90;;;;;;4933456;29;20394;-80
2021/12/28 11:57:30;;;;;;;;;;;2.70;99.90;;;;;;4950549;29;19926;-83
2021/12/28 11:59:57;;;;;;;;;;;2.70;99.90;;;;;;4947285;29;19919;-80
2021/12/28 12:02:37;;;;;;;;;;;2.80;99.90;;;;;;4954675;28;19942;-83
2021/12/28 12:05:14;;;;;;;;;;;2.80;99.90;;;;;;4951381;29;20507;-82
2021/12/28 12:07:39;;;;;;;;;;;2.80;99.90;;;;;;4950791;28;19937;-83
2021/12/28 12:10:07;;;;;;;;;;;2.80;99.90;;;;;;4966392;28;20364;-83
2021/12/28 12:12:42;;;;;;;;;;;2.80;99.90;;;;;;4950576;29;19962;-82
2021/12/28 12:15:09;;;;;;;;;;;2.80;99.90;;;;;;4967642;28;20041;-83
2021/12/28 12:17:39;;;;;;;;;;;2.80;99.90;;;;;;4950216;28;19918;-83
2021/12/28 12:20:17;;;;;;;;;;;2.80;99.90;;;;;;4948177;29;19925;-83
2021/12/28 12:22:51;;;;;;;;;;;2.70;99.90;;;;;;4944564;29;19954;-83
2021/12/28 12:25:18;;;;;;;;;;;2.70;99.90;;;;;;4961185;28;19918;-83
2021/12/28 12:27:48;;;;;;;;;;;2.70;99.90;;;;;;4963447;28;19921;-82
2021/12/28 12:30:17;;;;;;;;;;;2.70;99.90;;;;;;4946800;28;19977;-83
2021/12/28 12:32:55;;;;;;;;;;;2.70;99.90;;;;;;4950413;29;20055;-82
2021/12/28 12:35:40;;;;;;;;;;;2.70;99.90;;;;;;4952334;28;19921;-83
2021/12/28 12:38:11;;;;;;;;;;;2.70;99.90;;;;;;4975385;28;20025;-83
2021/12/28 12:40:51;;;;;;;;;;;2.70;99.90;;;;;;4950886;28;19915;-84
2021/12/28 12:43:17;;;;;;;;;;;2.70;99.90;;;;;;4985936;28;19915;-83
2021/12/28 12:45:56;;;;;;;;;;;2.70;99.90;;;;;;4970289;28;20013;-83
2021/12/28 12:48:37;;;;;;;;;;;2.70;99.90;;;;;;4986196;28;20340;-83
2021/12/28 12:51:22;;;;;;;;;;;2.70;99.90;;;;;;4964250;28;20341;-83
2021/12/28 12:53:55;;;;;;;;;;;2.70;99.90;;;;;;4953808;28;20035;-82
2021/12/28 12:56:22;;;;;;;;;;;2.70;99.90;;;;;;4970224;28;20389;-83
2021/12/28 12:58:49;;;;;;;;;;;2.70;99.90;;;;;;4952283;28;19921;-83
2021/12/28 13:01:21;;;;;;;;;;;2.70;99.90;;;;;;4969800;28;20277;-83
2021/12/28 13:03:47;;;;;;;;;;;2.70;99.90;;;;;;4953308;29;19961;-84
2021/12/28 13:06:13;;;;;;;;;;;2.70;99.90;;;;;;4953637;29;19914;-84
2021/12/28 13:08:38;;;;;;;;;;;2.70;99.90;;;;;;4953369;28;19914;-84
2021/12/28 13:11:04;;;;;;;;;;;2.60;99.90;;;;;;4953098;29;19926;-84
2021/12/28 13:13:30;;;;;;;;;;;2.60;99.90;;;;;;4948962;29;20404;-84
2021/12/28 13:15:55;;;;;;;;;;;2.60;99.90;;;;;;4933532;29;19926;-84
2021/12/28 13:18:21;;;;;;;;;;;2.60;99.90;;;;;;4952595;28;19918;-84
2021/12/28 13:20:48;;;;;;;;;;;2.70;99.90;;;;;;4957147;28;20017;-84
2021/12/28 13:23:13;;;;;;;;;;;2.70;99.90;;;;;;4962827;28;19918;-83
2021/12/28 13:25:42;;;;;;;;;;;2.80;99.90;;;;;;4967228;28;19926;-84
2021/12/28 13:28:09;;;;;;;;;;;2.80;99.90;;;;;;4971818;28;20379;-84
2021/12/28 13:30:39;;;;;;;;;;;2.80;99.90;;;;;;4988099;28;20368;-85
2021/12/28 13:33:06;;;;;;;;;;;2.90;99.90;;;;;;4949124;28;19919;-86
2021/12/28 13:35:38;;;;;;;;;;;2.90;99.90;;;;;;4954767;28;19910;-87
2021/12/28 13:38:06;;;;;;;;;;;2.90;99.90;;;;;;4958594;28;19921;-87
2021/12/28 13:40:36;;;;;;;;;;;2.90;99.90;;;;;;4964286;28;19922;-86
2021/12/28 13:43:03;;;;;;;;;;;3.00;99.90;;;;;;4951585;28;19973;-86
2021/12/28 13:45:29;;;;;;;;;;;3.00;99.90;;;;;;4982151;28;19957;-84
2021/12/28 13:47:55;;;;;;;;;;;3.00;99.90;;;;;;4947499;28;19953;-87
2021/12/28 13:50:20;;;;;;;;;;;3.00;99.90;;;;;;4963402;28;20016;-88
2021/12/28 13:52:52;;;;;;;;;;;3.00;99.90;;;;;;4969633;28;19984;-88
2021/12/28 13:55:23;;;;;;;;;;;3.00;99.90;;;;;;4967044;28;19949;-87
2021/12/28 13:57:48;;;;;;;;;;;3.00;99.90;;;;;;4984144;28;19914;-88
2021/12/28 14:00:15;;;;;;;;;;;3.00;99.90;;;;;;4953121;28;19925;-86
2021/12/28 14:02:52;;;;;;;;;;;3.00;99.90;;;;;;4934087;28;19914;-85
2021/12/28 14:05:17;;;;;;;;;;;3.00;99.90;;;;;;4949167;28;20258;-87
2021/12/28 14:07:43;;;;;;;;;;;3.00;99.90;;;;;;4957587;28;19922;-87
2021/12/28 14:10:09;;;;;;;;;;;3.00;99.90;;;;;;4981214;28;19981;-88
2021/12/28 14:12:35;;;;;;;;;;;3.00;99.90;;;;;;4954326;28;19953;-87
2021/12/28 14:15:00;;;;;;;;;;;3.00;99.90;;;;;;4965266;28;20683;-86
2021/12/28 14:17:29;;;;;;;;;;;3.00;99.90;;;;;;4932797;29;19925;-87
2021/12/28 14:19:59;;;;;;;;;;;3.00;99.90;;;;;;4932248;29;19919;-86
2021/12/28 14:22:25;;;;;;;;;;;3.00;99.90;;;;;;4962204;28;19921;-83
2021/12/28 14:24:52;;;;;;;;;;;3.00;99.90;;;;;;4940427;28;20542;-87
2021/12/28 14:27:23;;;;;;;;;;;3.00;99.90;;;;;;4975796;28;20447;-84
2021/12/28 14:29:58;;;;;;;;;;;3.10;99.90;;;;;;4975471;28;19961;-84
2021/12/28 14:32:32;;;;;;;;;;;3.10;99.90;;;;;;4958367;28;19972;-84
2021/12/28 14:35:01;;;;;;;;;;;3.10;99.90;;;;;;4960435;28;19978;-84